Time;durP1;ratioP1;P1;durP2;ratioP2;P2;SDS_P1;SDS_P2;PMS_P1;PMS_P2;Temp;Humidity;BMP_temperature;BMP_pressure;BME280_temperature;BME280_humidity;BME280_pressure;Samples;Min_cycle;Max_cycle;Signal;HPM_P1;HPM_P2
2023/11/22 00:00:32;;;;;;;5.00;2.97;;;;;;;5.45;100.00;99203.25;5010195;28;20508;-79
2023/11/22 00:02:57;;;;;;;4.22;2.85;;;;;;;5.47;100.00;99206.59;5024931;28;20021;-81
2023/11/22 00:05:22;;;;;;;5.35;3.17;;;;;;;5.40;100.00;99200.22;5016274;28;20017;-79
2023/11/22 00:07:48;;;;;;;6.65;2.83;;;;;;;5.36;100.00;99208.75;5038119;28;20112;-78
2023/11/22 00:10:13;;;;;;;4.72;2.83;;;;;;;5.35;100.00;99207.91;5036624;28;20226;-84
2023/11/22 00:12:39;;;;;;;7.65;3.35;;;;;;;5.10;100.00;99171.22;5057376;28;20029;-78
2023/11/22 00:15:10;;;;;;;5.85;3.20;;;;;;;5.22;100.00;99199.47;5036888;28;20017;-79
2023/11/22 00:17:35;;;;;;;5.82;2.90;;;;;;;5.17;100.00;99209.81;5042591;28;20017;-80
2023/11/22 00:20:05;;;;;;;6.18;3.22;;;;;;;5.09;100.00;99207.09;5034158;28;20058;-79
2023/11/22 00:22:32;;;;;;;6.50;3.13;;;;;;;5.11;100.00;99211.31;5040320;28;20036;-83
2023/11/22 00:24:57;;;;;;;5.65;2.97;;;;;;;5.09;100.00;99207.09;5046659;28;20033;-78
2023/11/22 00:27:23;;;;;;;5.13;3.00;;;;;;;5.01;100.00;99208.72;5035547;28;20029;-78
2023/11/22 00:29:48;;;;;;;5.63;3.28;;;;;;;5.10;100.00;99230.22;5011480;28;20022;-79
2023/11/22 00:32:13;;;;;;;5.53;3.08;;;;;;;5.07;100.00;99234.06;5023935;28;20021;-80
2023/11/22 00:34:39;;;;;;;6.38;3.40;;;;;;;5.08;100.00;99226.84;5025513;28;20036;-78
2023/11/22 00:37:04;;;;;;;6.00;3.08;;;;;;;5.13;100.00;99225.38;5024479;28;20025;-79
2023/11/22 00:39:30;;;;;;;6.60;3.10;;;;;;;5.12;100.00;99239.78;5028308;28;20025;-79
2023/11/22 00:41:55;;;;;;;6.20;3.20;;;;;;;5.14;100.00;99245.00;5042398;28;20067;-79
2023/11/22 00:44:21;;;;;;;6.22;2.75;;;;;;;5.00;100.00;99222.25;5041294;28;20081;-79
2023/11/22 00:46:46;;;;;;;7.95;3.17;;;;;;;5.09;100.00;99253.53;5024490;28;20075;-81
2023/11/22 00:49:12;;;;;;;4.88;2.60;;;;;;;5.01;100.00;99246.25;5034188;28;20218;-79
2023/11/22 00:51:38;;;;;;;5.32;2.92;;;;;;;5.05;100.00;99262.88;5028130;28;20022;-79
2023/11/22 00:54:04;;;;;;;6.57;2.95;;;;;;;4.93;100.00;99262.28;5016711;28;20037;-79
2023/11/22 00:56:30;;;;;;;4.13;2.05;;;;;;;4.76;100.00;99237.19;5026116;28;20040;-78
2023/11/22 00:58:57;;;;;;;4.32;2.65;;;;;;;4.86;100.00;99253.19;5021367;28;20369;-78
2023/11/22 01:01:22;;;;;;;4.00;2.33;;;;;;;4.83;100.00;99257.00;5024737;28;20378;-78
2023/11/22 01:03:47;;;;;;;4.32;2.85;;;;;;;4.74;100.00;99262.44;5037885;28;20039;-85
2023/11/22 01:06:13;;;;;;;5.43;3.22;;;;;;;4.62;100.00;99264.53;5024542;28;20058;-79
2023/11/22 01:08:39;;;;;;;7.63;3.13;;;;;;;4.51;100.00;99254.06;5024354;28;20029;-79
2023/11/22 01:11:05;;;;;;;4.13;2.80;;;;;;;4.59;100.00;99270.22;5053099;28;20033;-78
2023/11/22 01:13:31;;;;;;;5.85;2.60;;;;;;;4.48;100.00;99255.22;5039222;28;20349;-80
2023/11/22 01:15:56;;;;;;;6.75;3.05;;;;;;;4.45;100.00;99255.50;5031495;28;20025;-79
2023/11/22 01:18:22;;;;;;;4.25;2.70;;;;;;;4.43;100.00;99262.88;5030698;28;20025;-81
2023/11/22 01:20:47;;;;;;;6.22;2.67;;;;;;;4.48;100.00;99273.09;5039791;28;20024;-80
2023/11/22 01:23:14;;;;;;;6.00;3.15;;;;;;;4.39;100.00;99264.16;5030984;28;20302;-81
2023/11/22 01:25:39;;;;;;;4.78;2.30;;;;;;;4.38;100.00;99275.88;5031203;28;20052;-79
2023/11/22 01:28:05;;;;;;;4.95;2.65;;;;;;;4.39;100.00;99269.50;5023617;28;20075;-79
2023/11/22 01:30:30;;;;;;;5.18;2.88;;;;;;;4.49;100.00;99264.94;5028542;28;20091;-79
2023/11/22 01:32:56;;;;;;;4.00;2.33;;;;;;;4.53;100.00;99263.63;5030818;28;20927;-79
2023/11/22 01:35:21;;;;;;;4.80;2.70;;;;;;;4.55;100.00;99274.19;5021041;28;20029;-79
2023/11/22 01:37:47;;;;;;;3.80;2.35;;;;;;;4.56;100.00;99271.38;5022498;28;20021;-79
2023/11/22 01:40:12;;;;;;;3.40;2.13;;;;;;;4.46;100.00;99254.53;5028248;28;20239;-79
2023/11/22 01:42:40;;;;;;;3.70;2.17;;;;;;;4.57;100.00;99273.03;5065416;28;20028;-80
2023/11/22 01:45:06;;;;;;;8.30;2.40;;;;;;;4.39;100.00;99264.16;5023151;28;20024;-80
2023/11/22 01:47:32;;;;;;;3.90;2.15;;;;;;;4.29;100.00;99258.03;5008536;28;20330;-79
2023/11/22 01:49:57;;;;;;;4.32;2.30;;;;;;;4.35;100.00;99279.69;5034664;28;20017;-82
2023/11/22 01:52:23;;;;;;;4.82;2.55;;;;;;;4.33;100.00;99272.81;5030562;28;20025;-79
2023/11/22 01:54:48;;;;;;;8.82;2.65;;;;;;;4.41;100.00;99288.13;5047080;28;20021;-79
2023/11/22 01:57:14;;;;;;;4.85;2.22;;;;;;;4.49;100.00;99310.47;5034979;28;20024;-80
2023/11/22 01:59:40;;;;;;;4.22;2.35;;;;;;;4.27;100.00;99276.06;5027579;28;20094;-82
2023/11/22 02:02:05;;;;;;;5.32;2.47;;;;;;;4.41;100.00;99299.69;5035856;28;20037;-80
2023/11/22 02:04:30;;;;;;;5.28;2.20;;;;;;;4.25;100.00;99284.28;5053723;28;20040;-80
2023/11/22 02:06:56;;;;;;;4.80;2.53;;;;;;;4.47;100.00;99317.81;5034962;28;20056;-81
2023/11/22 02:09:22;;;;;;;4.25;2.80;;;;;;;4.29;100.00;99292.84;5034176;28;20068;-80
2023/11/22 02:11:48;;;;;;;4.32;2.38;;;;;;;4.40;100.00;99324.75;5035970;28;20048;-79
2023/11/22 02:14:14;;;;;;;4.75;2.58;;;;;;;4.30;100.00;99319.50;5040620;28;20022;-80
2023/11/22 02:16:40;;;;;;;5.40;2.60;;;;;;;4.23;100.00;99321.06;5044995;28;20391;-79
2023/11/22 02:19:07;;;;;;;5.82;3.20;;;;;;;4.25;100.00;99332.50;5038122;28;20021;-80
2023/11/22 02:21:32;;;;;;;4.65;2.45;;;;;;;4.12;100.00;99332.00;5013290;28;20028;-80
2023/11/22 02:23:58;;;;;;;5.10;2.50;;;;;;;4.04;100.00;99319.34;5042808;28;20171;-82
2023/11/22 02:26:24;;;;;;;5.57;3.05;;;;;;;4.04;100.00;99322.03;5059399;28;20040;-81
2023/11/22 02:28:50;;;;;;;6.45;3.20;;;;;;;3.87;100.00;99328.16;5040555;28;20032;-79
2023/11/22 02:31:15;;;;;;;5.13;2.75;;;;;;;3.92;100.00;99326.72;5020824;28;20025;-79
2023/11/22 02:33:41;;;;;;;4.60;2.67;;;;;;;3.93;100.00;99324.91;5028748;28;20029;-79
2023/11/22 02:36:07;;;;;;;5.97;3.20;;;;;;;3.81;100.00;99307.34;5041129;28;20021;-84
2023/11/22 02:38:34;;;;;;;9.05;3.20;;;;;;;3.89;100.00;99326.19;5036963;28;20072;-79
2023/11/22 02:41:01;;;;;;;6.07;3.50;;;;;;;3.67;100.00;99312.19;5040039;28;20021;-79
2023/11/22 02:43:26;;;;;;;5.57;3.40;;;;;;;3.86;100.00;99342.53;5031901;28;20098;-79
2023/11/22 02:45:51;;;;;;;6.20;2.80;;;;;;;3.81;100.00;99342.16;5020686;28;20021;-78
2023/11/22 02:48:18;;;;;;;5.85;3.50;;;;;;;3.71;100.00;99336.81;5046075;28;20365;-81
2023/11/22 02:50:44;;;;;;;5.97;3.28;;;;;;;3.82;100.00;99351.84;5027284;28;20017;-81
2023/11/22 02:53:09;;;;;;;5.72;3.05;;;;;;;3.89;100.00;99352.94;5038093;28;20029;-80
2023/11/22 02:55:34;;;;;;;5.65;3.05;;;;;;;3.87;100.00;99363.78;5045640;28;20326;-79
2023/11/22 02:58:00;;;;;;;4.78;2.72;;;;;;;3.91;100.00;99372.41;5046998;28;20052;-80
2023/11/22 03:00:25;;;;;;;5.30;2.80;;;;;;;3.79;100.00;99362.84;5039314;28;20024;-83
2023/11/22 03:02:53;;;;;;;5.38;3.03;;;;;;;3.81;100.00;99367.06;5035062;28;20092;-80
2023/11/22 03:05:23;;;;;;;6.45;2.95;;;;;;;3.76;100.00;99358.63;5031086;28;20021;-83
2023/11/22 03:07:50;;;;;;;6.13;2.88;;;;;;;3.89;100.00;99371.69;5031263;28;20028;-80
2023/11/22 03:10:17;;;;;;;5.40;2.72;;;;;;;3.93;100.00;99386.47;5034953;28;20109;-79
2023/11/22 03:12:43;;;;;;;4.88;2.60;;;;;;;3.90;100.00;99386.75;5044102;28;20152;-79
2023/11/22 03:15:09;;;;;;;6.50;3.00;;;;;;;4.04;100.00;99401.53;5026584;28;20025;-78
2023/11/22 03:17:34;;;;;;;5.68;2.97;;;;;;;3.95;100.00;99400.53;5027289;28;20017;-84
2023/11/22 03:20:00;;;;;;;5.38;2.83;;;;;;;3.89;100.00;99395.78;5007111;28;20022;-79
2023/11/22 03:22:33;;;;;;;4.72;2.75;;;;;;;3.97;100.00;99403.91;5019305;28;20028;-80
2023/11/22 03:24:58;;;;;;;5.03;2.95;;;;;;;3.86;100.00;99401.44;5042519;28;20024;-79
2023/11/22 03:27:25;;;;;;;5.43;3.05;;;;;;;3.90;100.00;99392.97;5043209;28;20120;-79
2023/11/22 03:29:50;;;;;;;4.28;2.38;;;;;;;3.98;100.00;99408.28;5035706;28;20020;-84
2023/11/22 03:32:16;;;;;;;5.07;2.97;;;;;;;3.92;100.00;99398.16;5032417;28;20018;-80
2023/11/22 03:34:41;;;;;;;6.00;2.70;;;;;;;3.95;100.00;99401.38;5047119;28;20056;-80
2023/11/22 03:37:07;;;;;;;5.55;2.97;;;;;;;3.96;100.00;99402.25;5037585;28;20013;-79
2023/11/22 03:39:32;;;;;;;3.13;2.00;;;;;;;4.01;100.00;99415.16;5030195;28;20030;-80
2023/11/22 03:41:57;;;;;;;4.60;2.72;;;;;;;3.89;100.00;99412.69;5037323;28;20025;-80
2023/11/22 03:44:23;;;;;;;5.18;2.92;;;;;;;3.82;100.00;99408.06;5013183;28;20025;-79
2023/11/22 03:46:48;;;;;;;4.45;2.33;;;;;;;3.84;100.00;99430.16;5035264;28;20032;-79
2023/11/22 03:49:14;;;;;;;4.47;2.50;;;;;;;3.87;100.00;99435.22;5031590;28;20027;-79
2023/11/22 03:51:40;;;;;;;3.72;2.35;;;;;;;3.87;100.00;99440.59;5028703;28;20044;-79
2023/11/22 03:54:06;;;;;;;4.97;2.40;;;;;;;3.80;100.00;99436.78;5016492;28;20022;-79
2023/11/22 03:56:33;;;;;;;4.03;2.42;;;;;;;3.80;100.00;99424.28;5023116;28;20022;-83
2023/11/22 03:58:59;;;;;;;4.18;2.10;;;;;;;3.84;100.00;99448.91;5030658;28;20258;-85
2023/11/22 04:01:24;;;;;;;5.43;2.50;;;;;;;3.76;100.00;99433.56;5032037;28;20032;-83
2023/11/22 04:03:50;;;;;;;4.15;2.42;;;;;;;3.80;100.00;99452.84;5047018;28;20052;-80
2023/11/22 04:06:16;;;;;;;4.82;2.70;;;;;;;3.91;100.00;99474.13;5031532;28;20089;-82
2023/11/22 04:08:45;;;;;;;4.53;2.28;;;;;;;3.82;100.00;99453.56;5043675;28;20222;-80
2023/11/22 04:11:11;;;;;;;4.68;2.40;;;;;;;3.78;100.00;99457.53;5021694;28;20026;-80
2023/11/22 04:13:37;;;;;;;5.35;2.58;;;;;;;3.71;100.00;99435.84;5009378;28;20085;-81
2023/11/22 04:16:03;;;;;;;4.13;2.20;;;;;;;3.74;100.00;99452.44;5037725;28;20348;-79
2023/11/22 04:18:30;;;;;;;5.13;2.55;;;;;;;3.65;100.00;99450.63;5031397;28;20063;-79
2023/11/22 04:20:58;;;;;;;4.70;2.20;;;;;;;3.75;100.00;99472.03;5043312;28;20051;-79
2023/11/22 04:23:23;;;;;;;3.40;2.22;;;;;;;3.79;100.00;99465.38;5042989;28;20051;-78
2023/11/22 04:25:49;;;;;;;3.72;2.25;;;;;;;3.62;100.00;99448.25;5052444;28;20099;-78
2023/11/22 04:28:15;;;;;;;5.82;1.92;;;;;;;3.87;100.00;99472.69;5023269;28;20230;-79
2023/11/22 04:30:40;;;;;;;7.55;2.45;;;;;;;3.75;100.00;99458.66;5011027;28;20025;-79
2023/11/22 04:33:06;;;;;;;4.07;2.25;;;;;;;3.60;100.00;99471.63;5016692;28;20376;-79
2023/11/22 04:35:36;;;;;;;3.75;2.28;;;;;;;3.67;100.00;99470.06;5010351;28;20107;-78
2023/11/22 04:38:01;;;;;;;3.63;2.05;;;;;;;3.69;100.00;99470.78;5026261;28;20022;-79
2023/11/22 04:40:26;;;;;;;5.63;2.25;;;;;;;3.66;100.00;99480.91;5042662;28;20382;-79
2023/11/22 04:42:52;;;;;;;5.00;2.28;;;;;;;3.67;100.00;99483.44;5043420;28;20143;-79
2023/11/22 04:45:17;;;;;;;4.25;2.20;;;;;;;3.71;100.00;99508.91;5027938;28;20028;-81
2023/11/22 04:47:42;;;;;;;3.40;1.80;;;;;;;3.72;100.00;99518.66;5009092;28;20033;-80
2023/11/22 04:50:09;;;;;;;6.40;2.40;;;;;;;3.64;100.00;99512.31;5027026;28;20025;-80
2023/11/22 04:52:34;;;;;;;5.47;2.30;;;;;;;3.66;100.00;99508.50;5045129;28;20303;-77
2023/11/22 04:55:00;;;;;;;2.92;2.10;;;;;;;3.63;100.00;99503.44;5042954;28;20076;-78
2023/11/22 04:57:25;;;;;;;4.93;2.42;;;;;;;3.65;100.00;99512.19;5025576;28;20021;-79
2023/11/22 04:59:51;;;;;;;3.63;2.03;;;;;;;3.54;100.00;99498.09;5030288;28;20029;-79
2023/11/22 05:02:16;;;;;;;4.40;2.30;;;;;;;3.82;100.00;99540.03;5026730;28;20345;-83
2023/11/22 05:04:42;;;;;;;7.65;2.20;;;;;;;3.56;100.00;99496.97;5029278;28;20083;-81
2023/11/22 05:07:07;;;;;;;4.35;2.20;;;;;;;3.61;100.00;99518.78;5048293;28;20326;-82
2023/11/22 05:09:33;;;;;;;5.68;2.17;;;;;;;3.56;100.00;99502.31;5035274;28;20021;-81
2023/11/22 05:11:58;;;;;;;3.92;1.88;;;;;;;3.67;100.00;99520.06;5035423;28;20092;-77
2023/11/22 05:14:24;;;;;;;4.05;2.13;;;;;;;3.70;100.00;99531.34;5023762;28;20060;-77
2023/11/22 05:16:49;;;;;;;4.75;2.30;;;;;;;3.68;100.00;99527.94;5029676;28;20025;-79
2023/11/22 05:19:14;;;;;;;4.13;2.33;;;;;;;3.87;100.00;99556.53;5019268;28;20028;-78
2023/11/22 05:21:40;;;;;;;5.38;1.80;;;;;;;3.81;100.00;99550.91;5026220;28;20029;-81
2023/11/22 05:24:07;;;;;;;2.55;1.67;;;;;;;3.78;100.00;99543.16;5028396;28;20056;-79
2023/11/22 05:27:30;;;;;;;6.53;2.00;;;;;;;3.98;100.00;99576.94;5033964;28;20029;-86
2023/11/22 05:29:55;;;;;;;3.95;2.33;;;;;;;3.88;100.00;99546.69;5010680;28;20068;-76
2023/11/22 05:32:20;;;;;;;3.25;1.92;;;;;;;3.86;100.00;99551.34;5017556;28;20029;-76
2023/11/22 05:34:46;;;;;;;4.78;2.30;;;;;;;3.91;100.00;99539.19;5017195;28;20017;-78
2023/11/22 05:37:12;;;;;;;3.88;2.03;;;;;;;3.78;100.00;99511.06;5037193;28;20043;-81
2023/11/22 05:39:37;;;;;;;4.57;2.05;;;;;;;3.81;100.00;99529.50;5031324;28;20021;-78
2023/11/22 05:42:03;;;;;;;3.30;1.80;;;;;;;3.87;100.00;99542.31;5031748;28;20072;-83
2023/11/22 05:44:28;;;;;;;12.02;5.43;;;;;;;3.87;100.00;99542.31;5028547;28;20025;-81
2023/11/22 05:46:54;;;;;;;14.70;7.32;;;;;;;3.81;100.00;99550.91;5025685;28;20318;-78
2023/11/22 05:49:19;;;;;;;11.88;5.40;;;;;;;3.66;100.00;99539.78;5022524;28;20018;-80
2023/11/22 05:51:44;;;;;;;11.05;4.50;;;;;;;3.74;100.00;99554.13;5047229;28;20389;-78
2023/11/22 05:54:12;;;;;;;7.30;3.70;;;;;;;3.80;100.00;99554.56;5050162;28;20087;-74
2023/11/22 05:56:38;;;;;;;4.40;2.60;;;;;;;3.65;100.00;99535.41;5057515;28;20080;-83
2023/11/22 05:59:03;;;;;;;8.80;4.28;;;;;;;3.69;100.00;99577.81;5044617;28;20033;-78
2023/11/22 06:01:30;;;;;;;8.63;4.20;;;;;;;3.77;100.00;99582.44;5036072;28;20067;-82
2023/11/22 06:03:55;;;;;;;23.95;10.05;;;;;;;3.88;100.00;99601.06;5031521;28;20024;-84
2023/11/22 06:06:21;;;;;;;9.05;5.13;;;;;;;3.75;100.00;99584.44;5030471;28;20017;-84
2023/11/22 06:08:47;;;;;;;5.93;2.67;;;;;;;3.53;100.00;99550.75;5026211;28;20104;-82
2023/11/22 06:11:14;;;;;;;6.38;2.83;;;;;;;3.60;100.00;99588.50;5029695;28;20021;-86
2023/11/22 06:13:40;;;;;;;4.38;2.25;;;;;;;3.55;100.00;99596.94;5026920;28;20135;-81
2023/11/22 06:16:07;;;;;;;4.30;2.22;;;;;;;3.65;100.00;99608.50;5029989;28;20025;-81
2023/11/22 06:18:40;;;;;;;3.17;1.95;;;;;;;3.72;100.00;99617.69;5030561;28;20021;-84
2023/11/22 06:21:09;;;;;;;3.97;2.30;;;;;;;3.52;100.00;99607.94;5024935;28;20056;-84
2023/11/22 06:23:34;;;;;;;3.38;2.03;;;;;;;3.47;100.00;99604.81;5040467;28;20021;-81
2023/11/22 06:25:59;;;;;;;3.47;1.80;;;;;;;3.38;100.00;99610.97;5041133;28;20021;-78
2023/11/22 06:28:25;;;;;;;5.05;1.65;;;;;;;3.40;100.00;99630.41;5052052;28;20025;-79
2023/11/22 06:30:50;;;;;;;4.07;1.73;;;;;;;3.37;100.00;99609.31;5052534;28;20025;-81
2023/11/22 06:33:16;;;;;;;3.10;1.50;;;;;;;3.46;100.00;99636.09;5038568;28;20025;-79
2023/11/22 06:35:42;;;;;;;2.80;1.70;;;;;;;3.34;100.00;99630.97;5039662;28;20025;-82
2023/11/22 06:38:08;;;;;;;5.97;2.50;;;;;;;3.12;100.00;99627.53;5028949;28;20040;-79
2023/11/22 06:40:33;;;;;;;4.40;1.98;;;;;;;3.09;100.00;99625.13;5031405;28;20048;-79
2023/11/22 06:42:58;;;;;;;5.80;2.30;;;;;;;2.98;100.00;99617.19;5046582;28;20029;-79
2023/11/22 06:45:24;;;;;;;2.13;1.50;;;;;;;3.16;100.00;99647.66;5029280;28;21646;-79
2023/11/22 06:47:50;;;;;;;4.18;1.90;;;;;;;2.81;100.00;99619.53;5027375;28;20253;-77
2023/11/22 06:50:15;;;;;;;3.95;1.83;;;;;;;2.84;100.00;99639.81;5045244;28;20128;-76
2023/11/22 06:52:41;;;;;;;3.70;1.67;;;;;;;2.92;100.00;99653.34;5025499;28;20032;-76
2023/11/22 06:55:08;;;;;;;3.33;1.60;;;;;;;3.01;100.00;99673.06;5034703;28;20022;-76
2023/11/22 06:57:37;;;;;;;3.90;2.03;;;;;;;2.90;100.00;99662.47;5022705;28;20025;-76
2023/11/22 07:00:06;;;;;;;3.75;2.13;;;;;;;2.89;100.00;99663.47;5027150;28;20033;-75
2023/11/22 07:02:32;;;;;;;3.75;1.77;;;;;;;2.93;100.00;99671.06;5024944;28;20029;-75
2023/11/22 07:04:59;;;;;;;6.05;2.28;;;;;;;2.97;100.00;99677.84;5043722;28;20026;-75
2023/11/22 07:07:25;;;;;;;6.00;2.08;;;;;;;2.88;100.00;99681.28;5025712;28;20034;-74
2023/11/22 07:09:50;;;;;;;2.95;1.67;;;;;;;2.84;100.00;99667.38;5044131;28;20028;-75
2023/11/22 07:12:16;;;;;;;7.80;2.20;;;;;;;2.77;100.00;99671.53;5026027;28;20021;-75
2023/11/22 07:14:43;;;;;;;4.50;1.85;;;;;;;2.63;100.00;99667.38;5025850;28;20048;-75
2023/11/22 07:17:08;;;;;;;3.72;2.08;;;;;;;2.58;100.00;99671.44;5031309;28;20017;-81
2023/11/22 07:19:38;;;;;;;3.25;1.85;;;;;;;2.52;100.00;99696.84;5036754;28;20097;-78
2023/11/22 07:22:15;;;;;;;3.63;2.03;;;;;;;2.60;100.00;99705.06;5023639;28;20017;-79
2023/11/22 07:24:44;;;;;;;4.82;2.15;;;;;;;2.46;100.00;99691.16;5030303;28;20034;-80
2023/11/22 07:27:12;;;;;;;3.97;2.13;;;;;;;2.53;100.00;99709.22;5026587;28;20028;-80
2023/11/22 07:29:39;;;;;;;4.38;2.38;;;;;;;2.58;100.00;99730.22;5039645;28;20389;-79
2023/11/22 07:32:05;;;;;;;3.88;2.03;;;;;;;2.28;100.00;99681.06;5045957;28;20277;-79
2023/11/22 07:34:30;;;;;;;3.40;1.73;;;;;;;2.55;100.00;99733.16;5039891;28;20045;-76
2023/11/22 07:36:55;;;;;;;8.50;2.10;;;;;;;2.59;100.00;99738.09;5029302;28;20051;-83
2023/11/22 07:39:27;;;;;;;5.97;2.20;;;;;;;2.42;100.00;99715.47;5034093;28;20104;-79
2023/11/22 07:41:52;;;;;;;4.43;2.15;;;;;;;2.36;100.00;99721.34;5028584;28;20222;-77
2023/11/22 07:44:18;;;;;;;4.55;2.58;;;;;;;2.37;100.00;99733.69;5045067;28;20096;-79
2023/11/22 07:46:44;;;;;;;5.43;2.45;;;;;;;2.51;100.00;99755.72;5032503;28;20107;-83
2023/11/22 07:49:09;;;;;;;3.03;1.80;;;;;;;2.39;100.00;99733.59;5027496;28;20322;-83
2023/11/22 07:51:37;;;;;;;6.18;2.30;;;;;;;2.37;100.00;99736.38;5045941;28;20116;-72
2023/11/22 07:54:02;;;;;;;8.20;2.80;;;;;;;2.37;100.00;99752.38;5030806;28;20025;-72
2023/11/22 07:56:29;;;;;;;4.05;2.53;;;;;;;2.29;100.00;99724.63;5047305;28;20036;-74
2023/11/22 07:58:55;;;;;;;8.43;2.45;;;;;;;2.35;100.00;99740.13;5030776;28;20029;-75
2023/11/22 08:01:20;;;;;;;4.00;2.05;;;;;;;2.35;100.00;99724.97;5043882;28;20480;-74
2023/11/22 08:03:45;;;;;;;5.78;2.63;;;;;;;2.45;100.00;99733.06;5044068;28;20025;-75
2023/11/22 08:06:13;;;;;;;5.43;2.65;;;;;;;2.45;100.00;99734.88;5032653;28;20037;-75
2023/11/22 08:08:39;;;;;;;5.95;2.33;;;;;;;2.52;100.00;99752.09;5029292;28;20021;-75
2023/11/22 08:11:05;;;;;;;4.32;2.28;;;;;;;2.37;100.00;99733.69;5042232;28;20045;-74
2023/11/22 08:13:31;;;;;;;4.60;2.50;;;;;;;2.43;100.00;99748.34;5025660;28;20033;-73
2023/11/22 08:15:57;;;;;;;3.90;2.33;;;;;;;2.51;100.00;99745.03;5052686;28;22046;-83
2023/11/22 08:18:22;;;;;;;5.70;2.40;;;;;;;2.58;100.00;99748.91;5041715;28;20044;-79
2023/11/22 08:20:47;;;;;;;4.90;2.38;;;;;;;2.65;100.00;99755.44;5032606;28;20083;-85
2023/11/22 08:23:14;;;;;;;4.40;2.50;;;;;;;2.42;100.00;99709.28;5040459;28;20032;-81
2023/11/22 08:25:40;;;;;;;8.57;2.65;;;;;;;2.47;100.00;99714.25;5038940;28;20039;-79
2023/11/22 08:28:08;;;;;;;6.65;2.55;;;;;;;2.45;100.00;99719.72;5046926;28;20029;-78
2023/11/22 08:30:35;;;;;;;5.55;2.92;;;;;;;2.53;100.00;99735.09;5029246;28;20029;-80
2023/11/22 08:33:02;;;;;;;7.57;2.25;;;;;;;2.71;100.00;99757.56;5026267;28;20037;-78
2023/11/22 08:35:27;;;;;;;5.32;2.72;;;;;;;2.65;100.00;99752.75;5035887;28;20026;-78
2023/11/22 08:37:53;;;;;;;5.55;2.95;;;;;;;2.76;100.00;99759.88;5027366;28;20025;-82
2023/11/22 08:40:21;;;;;;;5.47;2.80;;;;;;;2.51;100.00;99721.00;5040860;28;20025;-80
2023/11/22 08:42:47;;;;;;;5.22;2.80;;;;;;;2.84;100.00;99762.72;5034016;28;20436;-79
2023/11/22 08:45:13;;;;;;;11.48;2.58;;;;;;;2.86;100.00;99739.41;5035659;28;20083;-80
2023/11/22 08:47:41;;;;;;;7.80;2.53;;;;;;;3.01;100.00;99755.94;5036561;28;20030;-77
2023/11/22 08:50:12;;;;;;;5.55;2.08;;;;;;;3.14;100.00;99753.91;5026046;28;20322;-81
2023/11/22 08:52:39;;;;;;;5.50;2.90;;;;;;;3.32;100.00;99769.34;5042503;28;20025;-80
2023/11/22 08:55:07;;;;;;;5.43;2.55;;;;;;;3.31;100.00;99749.78;5026581;28;20025;-81
2023/11/22 08:57:37;;;;;;;7.80;2.95;;;;;;;3.34;100.00;99730.78;5032307;28;20088;-81
2023/11/22 09:00:08;;;;;;;6.35;2.50;;;;;;;3.48;100.00;99746.50;5043501;28;20013;-80
2023/11/22 09:02:33;;;;;;;5.18;2.75;;;;;;;3.45;100.00;99728.00;5026410;28;20031;-78
2023/11/22 09:04:59;;;;;;;7.15;2.70;;;;;;;3.54;100.00;99738.88;5034265;28;20021;-79
2023/11/22 09:07:24;;;;;;;5.80;2.30;;;;;;;3.62;100.00;99736.38;5027232;28;20025;-80
2023/11/22 09:09:51;;;;;;;4.43;2.65;;;;;;;3.56;100.00;99747.63;5029947;28;20035;-79
2023/11/22 09:12:19;;;;;;;5.30;2.60;;;;;;;3.58;100.00;99746.50;5026284;28;20033;-80
2023/11/22 09:14:45;;;;;;;4.82;2.63;;;;;;;3.48;100.00;99746.50;5038214;28;20236;-77
2023/11/22 09:17:10;;;;;;;5.18;2.60;;;;;;;3.48;100.00;99730.44;5024965;28;20028;-77
2023/11/22 09:19:37;;;;;;;4.38;2.47;;;;;;;3.50;100.00;99743.66;5025908;28;21514;-77
2023/11/22 09:22:02;;;;;;;6.80;2.83;;;;;;;3.35;100.00;99750.34;5042375;28;20040;-77
2023/11/22 09:24:28;;;;;;;4.95;2.80;;;;;;;3.33;100.00;99741.59;5043800;28;20013;-78
2023/11/22 09:26:53;;;;;;;4.72;2.45;;;;;;;3.45;100.00;99753.91;5024928;28;20025;-74
2023/11/22 09:29:18;;;;;;;6.07;2.75;;;;;;;3.60;100.00;99762.44;5032862;28;20018;-74
2023/11/22 09:31:47;;;;;;;5.00;2.35;;;;;;;3.51;100.00;99756.91;5040544;28;20029;-74
2023/11/22 09:34:13;;;;;;;5.68;2.90;;;;;;;3.55;100.00;99762.81;5030541;28;20029;-78
2023/11/22 09:36:39;;;;;;;7.10;2.90;;;;;;;3.35;100.00;99775.25;5037272;28;20037;-79
2023/11/22 09:39:08;;;;;;;7.65;3.05;;;;;;;3.52;100.00;99768.47;5035830;28;20049;-84
2023/11/22 09:41:34;;;;;;;;;;;;;;;3.80;100.00;99771.34;5034233;28;20032;-79
2023/11/22 09:44:00;;;;;;;7.72;2.95;;;;;;;3.60;100.00;99754.41;5045818;28;19909;-80
2023/11/22 09:46:26;;;;;;;4.85;2.72;;;;;;;3.81;100.00;99765.03;5035535;28;20057;-79
2023/11/22 09:48:55;;;;;;;5.82;2.65;;;;;;;3.57;100.00;99770.72;5042640;28;20104;-78
2023/11/22 09:51:24;;;;;;;5.82;3.10;;;;;;;3.74;100.00;99800.34;5031851;28;20335;-80
2023/11/22 09:53:56;;;;;;;6.63;3.23;;;;;;;3.55;100.00;99762.81;5026474;28;20038;-80
2023/11/22 09:56:23;;;;;;;6.80;3.03;;;;;;;3.81;100.00;99805.19;5030038;28;20053;-75
2023/11/22 09:58:54;;;;;;;6.05;3.00;;;;;;;3.83;100.00;99812.09;5043741;28;20088;-75
2023/11/22 10:01:20;;;;;;;5.18;2.65;;;;;;;3.84;100.00;99804.91;5037383;28;20040;-78
2023/11/22 10:03:47;;;;;;;4.20;2.75;;;;;;;4.02;100.00;99815.81;5030872;28;20037;-79
2023/11/22 10:06:14;;;;;;;7.45;3.58;;;;;;;4.06;100.00;99815.41;5050053;28;20051;-79
2023/11/22 10:08:40;;;;;;;8.43;4.55;;;;;;;4.11;100.00;99817.66;5027818;28;20026;-77
2023/11/22 10:11:06;;;;;;;7.53;3.50;;;;;;;4.07;100.00;99826.97;5023439;28;20021;-77
2023/11/22 10:13:32;;;;;;;5.32;2.85;;;;;;;3.89;100.00;99802.69;5023665;28;20053;-75
2023/11/22 10:16:09;;;;;;;6.15;3.30;;;;;;;4.13;100.00;99813.03;5031031;28;20021;-79
2023/11/22 10:18:34;;;;;;;6.38;3.20;;;;;;;4.19;100.00;99823.19;5032128;28;20029;-74
2023/11/22 10:21:03;;;;;;;6.45;3.05;;;;;;;4.35;100.00;99804.75;5042734;28;20346;-74
2023/11/22 10:23:29;;;;;;;5.47;2.97;;;;;;;4.45;100.00;99798.56;5033954;28;20088;-74
2023/11/22 10:25:55;;;;;;;6.70;2.88;;;;;;;4.57;100.00;99803.66;5047947;28;20045;-75
2023/11/22 10:28:23;;;;;;;7.57;3.63;;;;;;;4.78;100.00;99816.06;5049069;28;20043;-74
2023/11/22 10:30:51;;;;;;;6.85;3.15;;;;;;;4.86;100.00;99818.03;5046291;28;20052;-76
2023/11/22 10:33:17;;;;;;;5.28;3.08;;;;;;;4.92;100.00;99802.22;5044899;28;20025;-75
2023/11/22 10:35:53;;;;;;;5.60;3.10;;;;;;;4.92;100.00;99810.25;5025649;28;20025;-75
2023/11/22 10:38:20;;;;;;;5.00;2.40;;;;;;;4.78;100.00;99805.34;5044877;28;20017;-75
2023/11/22 10:40:47;;;;;;;6.32;3.05;;;;;;;4.88;100.00;99808.03;5042335;28;20111;-74
2023/11/22 10:43:13;;;;;;;7.50;3.90;;;;;;;4.80;100.00;99798.00;5044979;28;20099;-75
2023/11/22 10:45:40;;;;;;;5.38;2.90;;;;;;;5.05;100.00;99812.66;5022786;28;20315;-75
2023/11/22 10:48:08;;;;;;;5.45;2.88;;;;;;;4.93;100.00;99803.94;5040673;28;20044;-77
2023/11/22 10:50:34;;;;;;;5.40;3.08;;;;;;;5.10;100.00;99804.19;5045147;28;20025;-80
2023/11/22 10:53:01;;;;;;;10.50;4.50;;;;;;;5.07;100.00;99810.69;5043912;28;20025;-76
2023/11/22 10:55:31;;;;;;;13.30;6.32;;;;;;;5.09;100.00;99807.88;5027208;28;20022;-75
2023/11/22 10:58:01;;;;;;;;;;;;;;;5.22;100.00;99824.50;5043899;28;20389;-73
2023/11/22 11:00:27;;;;;;;10.70;5.63;;;;;;;5.15;100.00;99829.59;5042908;28;19967;-73
2023/11/22 11:02:59;;;;;;;6.28;3.30;;;;;;;5.20;100.00;99827.31;5032580;28;20021;-74
2023/11/22 11:05:30;;;;;;;6.85;3.00;;;;;;;5.53;100.00;99838.56;5035489;28;20029;-74
2023/11/22 11:08:09;;;;;;;6.90;2.65;;;;;;;5.47;100.00;99837.28;5044602;28;20025;-74
2023/11/22 11:10:35;;;;;;;5.30;2.67;;;;;;;5.37;100.00;99828.44;5039102;28;20106;-74
2023/11/22 11:13:01;;;;;;;5.88;3.13;;;;;;;5.28;100.00;99837.34;5042343;28;20203;-75
2023/11/22 11:15:27;;;;;;;5.40;2.90;;;;;;;5.01;100.00;99828.19;5032665;28;20051;-74
2023/11/22 11:17:53;;;;;;;5.57;3.00;;;;;;;4.89;100.00;99836.53;5043390;28;20061;-74
2023/11/22 11:20:22;;;;;;;7.20;3.22;;;;;;;4.98;100.00;99841.06;5034577;28;20075;-75
2023/11/22 11:22:49;;;;;;;9.65;2.75;;;;;;;5.27;100.00;99852.59;5022520;28;20037;-74
2023/11/22 11:25:18;;;;;;;5.85;3.50;;;;;;;5.16;100.00;99846.53;5040659;28;20032;-78
2023/11/22 11:27:44;;;;;;;5.45;3.38;;;;;;;5.03;100.00;99842.31;5028348;28;20028;-75
2023/11/22 11:30:32;;;;;;;5.35;2.90;;;;;;;5.15;100.00;99843.00;5042258;28;20020;-75